JLY1207 SBMG-SBCG
Flight info
| Callsign | JLY1207 |
|---|---|
| Flight time | N/A |
| Altitude | 34000 |
| Route | SINIL UZ63 FIGOS |
| Aircraft | B738/M-SDFGIKRWY/LB1 |
Departure
| Time | N/A |
|---|---|
| Airport | Regional de Maringá - Sílvio Name Júnior Airport (SBMG) |
Arrival
| Time | 2026-05-05 00:33 |
|---|---|
| Airport | Campo Grande Airport (SBCG) |
| Time | Latitude | Longitude | Altitude | Speed | Heading |
|---|---|---|---|---|---|
| 2026-05-05 00:15 | -21.20653 | -53.85033 | 23312 ft | 354 kts | 302° |
| 2026-05-05 00:16 | -21.19241 | -53.87166 | 22866 ft | 351 kts | 302° |
| 2026-05-05 00:16 | -21.17829 | -53.89294 | 22424 ft | 348 kts | 302° |
| 2026-05-05 00:16 | -21.16436 | -53.91391 | 21988 ft | 345 kts | 302° |
| 2026-05-05 00:16 | -21.15061 | -53.93463 | 21554 ft | 342 kts | 302° |
| 2026-05-05 00:17 | -21.13680 | -53.95543 | 21119 ft | 340 kts | 303° |
| 2026-05-05 00:17 | -21.12332 | -53.97572 | 20689 ft | 337 kts | 303° |
| 2026-05-05 00:17 | -21.10979 | -53.99609 | 20254 ft | 335 kts | 302° |
| 2026-05-05 00:17 | -21.09635 | -54.01634 | 19825 ft | 333 kts | 303° |
| 2026-05-05 00:18 | -21.08287 | -54.03662 | 19393 ft | 331 kts | 303° |
| 2026-05-05 00:18 | -21.06953 | -54.05670 | 18967 ft | 334 kts | 303° |
| 2026-05-05 00:18 | -21.05600 | -54.07708 | 18527 ft | 338 kts | 303° |
| 2026-05-05 00:18 | -21.04246 | -54.09748 | 18089 ft | 337 kts | 303° |
| 2026-05-05 00:19 | -21.02893 | -54.11781 | 17651 ft | 335 kts | 303° |
| 2026-05-05 00:19 | -21.01541 | -54.13811 | 17218 ft | 333 kts | 304° |
| 2026-05-05 00:19 | -21.00212 | -54.15806 | 16791 ft | 331 kts | 304° |
| 2026-05-05 00:19 | -20.98868 | -54.17823 | 16358 ft | 329 kts | 304° |
| 2026-05-05 00:20 | -20.97541 | -54.19813 | 15927 ft | 327 kts | 304° |
| 2026-05-05 00:20 | -20.96236 | -54.21771 | 15505 ft | 326 kts | 304° |
| 2026-05-05 00:20 | -20.94929 | -54.23729 | 15082 ft | 324 kts | 304° |
| 2026-05-05 00:20 | -20.93622 | -54.25686 | 14655 ft | 322 kts | 304° |
| 2026-05-05 00:21 | -20.92319 | -54.27638 | 14227 ft | 320 kts | 304° |
| 2026-05-05 00:21 | -20.91049 | -54.29539 | 13812 ft | 317 kts | 305° |
| 2026-05-05 00:21 | -20.89770 | -54.31463 | 13389 ft | 315 kts | 304° |
| 2026-05-05 00:21 | -20.88582 | -54.33427 | 12971 ft | 313 kts | 301° |
| 2026-05-05 00:22 | -20.87477 | -54.35436 | 12550 ft | 311 kts | 300° |
| 2026-05-05 00:22 | -20.86409 | -54.37431 | 12133 ft | 309 kts | 300° |
| 2026-05-05 00:22 | -20.85339 | -54.39411 | 11718 ft | 307 kts | 301° |
| 2026-05-05 00:22 | -20.84624 | -54.40719 | 11443 ft | 306 kts | 302° |
| 2026-05-05 00:23 | -20.83185 | -54.43320 | 10895 ft | 304 kts | 303° |
| 2026-05-05 00:23 | -20.82109 | -54.45253 | 10491 ft | 302 kts | 303° |
| 2026-05-05 00:23 | -20.81050 | -54.47150 | 10095 ft | 300 kts | 303° |
| 2026-05-05 00:23 | -20.79997 | -54.49038 | 9910 ft | 290 kts | 303° |
| 2026-05-05 00:24 | -20.78960 | -54.50897 | 9488 ft | 290 kts | 304° |
| 2026-05-05 00:24 | -20.77932 | -54.52738 | 9106 ft | 288 kts | 304° |
| 2026-05-05 00:24 | -20.76904 | -54.54577 | 8729 ft | 287 kts | 304° |
| 2026-05-05 00:24 | -20.75897 | -54.56379 | 8362 ft | 285 kts | 304° |
| 2026-05-05 00:25 | -20.74880 | -54.58200 | 7992 ft | 284 kts | 304° |
| 2026-05-05 00:25 | -20.73869 | -54.60008 | 7625 ft | 282 kts | 304° |
| 2026-05-05 00:25 | -20.72879 | -54.61780 | 7266 ft | 280 kts | 304° |
| 2026-05-05 00:25 | -20.71870 | -54.63584 | 6895 ft | 278 kts | 304° |
| 2026-05-05 00:26 | -20.70885 | -54.65345 | 6562 ft | 276 kts | 304° |
| 2026-05-05 00:26 | -20.69926 | -54.67063 | 6414 ft | 265 kts | 304° |
| 2026-05-05 00:26 | -20.68999 | -54.68723 | 6336 ft | 253 kts | 304° |
| 2026-05-05 00:26 | -20.68122 | -54.70294 | 6260 ft | 241 kts | 304° |
| 2026-05-05 00:27 | -20.67281 | -54.71790 | 6189 ft | 229 kts | 307° |
| 2026-05-05 00:27 | -20.66349 | -54.73137 | 5972 ft | 221 kts | 315° |
| 2026-05-05 00:27 | -20.65325 | -54.74326 | 5667 ft | 216 kts | 318° |
| 2026-05-05 00:27 | -20.64300 | -54.75469 | 5394 ft | 211 kts | 317° |
| 2026-05-05 00:28 | -20.63301 | -54.76609 | 5137 ft | 207 kts | 317° |
| 2026-05-05 00:28 | -20.62324 | -54.77693 | 4925 ft | 198 kts | 326° |
| 2026-05-05 00:28 | -20.61126 | -54.78153 | 4884 ft | 175 kts | 2° |
| 2026-05-05 00:28 | -20.59922 | -54.78043 | 4751 ft | 176 kts | 11° |
| 2026-05-05 00:29 | -20.58738 | -54.77694 | 4517 ft | 176 kts | 21° |
| 2026-05-05 00:29 | -20.57625 | -54.77155 | 4289 ft | 175 kts | 28° |
| 2026-05-05 00:29 | -20.56598 | -54.76450 | 4055 ft | 172 kts | 36° |
| 2026-05-05 00:29 | -20.55692 | -54.75689 | 3835 ft | 161 kts | 38° |
| 2026-05-05 00:30 | -20.54848 | -54.74927 | 3627 ft | 158 kts | 39° |
| 2026-05-05 00:30 | -20.54013 | -54.74152 | 3416 ft | 160 kts | 40° |
| 2026-05-05 00:30 | -20.53455 | -54.73624 | 3275 ft | 158 kts | 40° |
| 2026-05-05 00:30 | -20.52489 | -54.72700 | 3015 ft | 143 kts | 41° |
| 2026-05-05 00:31 | -20.51754 | -54.71992 | 2826 ft | 141 kts | 41° |
| 2026-05-05 00:31 | -20.51018 | -54.71283 | 2647 ft | 143 kts | 41° |
| 2026-05-05 00:31 | -20.50282 | -54.70572 | 2451 ft | 143 kts | 41° |
| 2026-05-05 00:31 | -20.49547 | -54.69860 | 2269 ft | 143 kts | 41° |
| 2026-05-05 00:32 | -20.48798 | -54.69139 | 2113 ft | 144 kts | 42° |
| 2026-05-05 00:32 | -20.48054 | -54.68418 | 1915 ft | 144 kts | 42° |
| 2026-05-05 00:32 | -20.47334 | -54.67720 | 1841 ft | 124 kts | 42° |
| 2026-05-05 00:32 | -20.46873 | -54.67273 | 1841 ft | 58 kts | 42° |
| 2026-05-05 00:33 | -20.46614 | -54.67022 | 1841 ft | 47 kts | 43° |
| 2026-05-05 00:33 | -20.46433 | -54.66848 | 1841 ft | 26 kts | 41° |
| 2026-05-05 00:33 | -20.46302 | -54.66724 | 1841 ft | 15 kts | 43° |
| 2026-05-05 00:33 | -20.46230 | -54.66653 | 1841 ft | 13 kts | 42° |
| 2026-05-05 00:34 | -20.46151 | -54.66607 | 1841 ft | 13 kts | 354° |
| 2026-05-05 00:34 | -20.46060 | -54.66637 | 1841 ft | 13 kts | 340° |
| 2026-05-05 00:34 | -20.45982 | -54.66668 | 1841 ft | 8 kts | 339° |
| 2026-05-05 00:34 | -20.45925 | -54.66691 | 1841 ft | 8 kts | 339° |
| 2026-05-05 00:35 | -20.45866 | -54.66715 | 1841 ft | 9 kts | 336° |
| 2026-05-05 00:35 | -20.45836 | -54.66768 | 1841 ft | 9 kts | 271° |
| 2026-05-05 00:35 | -20.45840 | -54.66830 | 1841 ft | 5 kts | 274° |
| 2026-05-05 00:35 | -20.45817 | -54.66850 | 1841 ft | 4 kts | 346° |
| 2026-05-05 00:36 | -20.45802 | -54.66853 | 1841 ft | 0 kts | 350° |
| 2026-05-05 00:36 | -20.45793 | -54.66855 | 1841 ft | 0 kts | 352° |
| 2026-05-05 00:36 | -20.45790 | -54.66855 | 1841 ft | 0 kts | 352° |